Time;durP1;ratioP1;P1;durP2;ratioP2;P2;SDS_P1;SDS_P2;PMS_P1;PMS_P2;Temp;Humidity;BMP_temperature;BMP_pressure;BME280_temperature;BME280_humidity;BME280_pressure;Samples;Min_cycle;Max_cycle;Signal;HPM_P1;HPM_P2
2022/03/15 00:00:48;;;;;;;10.77;7.03;;;-1.10;99.90;;;;;;5188180;28;20389;-76
2022/03/15 00:03:19;;;;;;;22.42;10.18;;;-1.00;99.90;;;;;;5188383;28;20033;-76
2022/03/15 00:05:50;;;;;;;17.48;9.27;;;-1.00;99.90;;;;;;5187843;28;20096;-76
2022/03/15 00:08:21;;;;;;;16.77;8.57;;;-0.90;99.90;;;;;;5188361;28;20477;-76
2022/03/15 00:10:55;;;;;;;12.23;5.85;;;-1.00;99.90;;;;;;5188226;28;20037;-76
2022/03/15 00:13:28;;;;;;;12.52;6.60;;;-1.00;99.90;;;;;;5188277;28;20481;-77
2022/03/15 00:16:02;;;;;;;15.75;7.43;;;-0.80;99.90;;;;;;5188191;28;20022;-76
2022/03/15 00:18:32;;;;;;;14.65;7.57;;;-0.90;99.90;;;;;;5188020;28;20094;-76
2022/03/15 00:21:05;;;;;;;9.40;5.68;;;-1.10;99.90;;;;;;5187929;28;20053;-76
2022/03/15 00:23:36;;;;;;;8.95;5.55;;;-1.20;99.90;;;;;;5187915;28;20067;-77
2022/03/15 00:26:07;;;;;;;7.63;4.55;;;-1.00;99.90;;;;;;5187935;28;20030;-77
2022/03/15 00:28:38;;;;;;;11.52;5.68;;;-0.90;99.90;;;;;;5187646;28;20478;-77
2022/03/15 00:31:09;;;;;;;8.80;5.22;;;-0.80;99.90;;;;;;5187832;28;20075;-77
2022/03/15 00:33:40;;;;;;;8.88;5.80;;;-0.90;99.90;;;;;;5187886;28;20026;-78
2022/03/15 00:36:12;;;;;;;9.98;5.65;;;-0.70;99.90;;;;;;5187815;28;20041;-77
2022/03/15 00:38:42;;;;;;;9.48;5.50;;;-0.80;99.90;;;;;;5187593;28;20037;-77
2022/03/15 00:41:13;;;;;;;12.82;6.10;;;-0.70;99.90;;;;;;5187630;28;20033;-77
2022/03/15 00:43:44;;;;;;;10.23;5.68;;;-0.70;99.90;;;;;;5187743;28;20036;-77
2022/03/15 00:46:15;;;;;;;11.52;5.57;;;-0.50;99.90;;;;;;5187573;28;20448;-77
2022/03/15 00:48:46;;;;;;;8.95;5.65;;;-0.50;99.90;;;;;;5187579;28;20125;-76
2022/03/15 00:51:16;;;;;;;9.35;5.38;;;-0.50;99.90;;;;;;5187485;28;20123;-77
2022/03/15 00:53:47;;;;;;;13.35;5.65;;;-0.50;99.90;;;;;;5187448;28;20109;-77
2022/03/15 00:56:19;;;;;;;13.13;5.97;;;-0.50;99.90;;;;;;5187268;28;20030;-77
2022/03/15 00:58:50;;;;;;;11.65;5.68;;;-0.50;99.90;;;;;;5186765;28;20033;-78
2022/03/15 01:01:21;;;;;;;11.98;6.35;;;-0.60;99.90;;;;;;5187376;28;20080;-77
2022/03/15 01:03:51;;;;;;;9.23;6.15;;;-0.40;99.90;;;;;;5187200;28;20126;-77
2022/03/15 01:06:22;;;;;;;12.18;6.38;;;-0.40;99.90;;;;;;5187182;28;20105;-77
2022/03/15 01:08:53;;;;;;;13.98;7.30;;;-0.30;99.90;;;;;;5187202;28;20422;-77
2022/03/15 01:11:24;;;;;;;17.98;10.27;;;-0.20;99.90;;;;;;5169604;28;20081;-77
2022/03/15 01:13:55;;;;;;;18.02;10.77;;;-0.30;99.90;;;;;;5187033;28;20080;-77
2022/03/15 01:16:26;;;;;;;15.90;9.40;;;-0.30;99.90;;;;;;5186900;28;20033;-77
2022/03/15 01:18:57;;;;;;;16.20;9.23;;;-0.40;99.90;;;;;;5186119;28;20044;-78
2022/03/15 01:21:29;;;;;;;19.45;10.02;;;-0.50;99.90;;;;;;5187105;28;20041;-77
2022/03/15 01:23:59;;;;;;;16.73;9.77;;;-0.40;99.90;;;;;;5186920;28;20437;-77
2022/03/15 01:26:30;;;;;;;17.17;10.10;;;-0.30;99.90;;;;;;5186859;28;20029;-78
2022/03/15 01:29:01;;;;;;;20.75;10.77;;;-0.40;99.90;;;;;;5186561;28;20113;-77
2022/03/15 01:31:32;;;;;;;27.95;12.40;;;-0.30;99.90;;;;;;5186783;28;20036;-77
2022/03/15 01:34:04;;;;;;;29.25;16.08;;;-0.30;99.90;;;;;;5186756;28;20528;-78
2022/03/15 01:36:34;;;;;;;30.63;16.05;;;-0.50;99.90;;;;;;5186628;28;20018;-77
2022/03/15 01:39:06;;;;;;;29.88;16.25;;;-0.40;99.90;;;;;;5186593;28;20412;-77
2022/03/15 01:41:41;;;;;;;31.58;18.25;;;-0.30;99.90;;;;;;5186679;28;20057;-77
2022/03/15 01:44:19;;;;;;;35.00;17.17;;;-0.30;99.90;;;;;;5186529;28;20056;-78
2022/03/15 01:46:50;;;;;;;24.65;14.30;;;-0.30;99.90;;;;;;5186552;28;20060;-77
2022/03/15 01:49:21;;;;;;;56.97;24.17;;;-0.40;99.90;;;;;;5186468;28;20026;-77
2022/03/15 01:51:52;;;;;;;23.83;11.27;;;-0.40;99.90;;;;;;5186431;28;20026;-77
2022/03/15 01:54:24;;;;;;;19.80;11.77;;;-0.70;99.90;;;;;;5186340;28;20057;-77
2022/03/15 01:56:55;;;;;;;20.25;11.73;;;-0.40;99.90;;;;;;5186374;28;20076;-78
2022/03/15 01:59:26;;;;;;;24.75;12.52;;;-0.40;99.90;;;;;;5185700;28;20089;-77
2022/03/15 02:01:56;;;;;;;19.67;12.05;;;-0.30;99.90;;;;;;5186375;28;20026;-77
2022/03/15 02:04:27;;;;;;;21.58;10.15;;;-0.50;99.90;;;;;;5186348;28;20441;-78
2022/03/15 02:07:02;;;;;;;37.75;13.13;;;-0.40;99.90;;;;;;5186219;28;20057;-77
2022/03/15 02:09:34;;;;;;;38.55;12.85;;;-0.30;99.90;;;;;;5186132;28;20508;-77
2022/03/15 02:12:05;;;;;;;21.77;11.07;;;-0.30;99.90;;;;;;5186129;28;20021;-77
2022/03/15 02:14:37;;;;;;;30.27;12.43;;;-0.30;99.90;;;;;;5186232;28;20084;-77
2022/03/15 02:17:08;;;;;;;32.75;13.60;;;-0.30;99.90;;;;;;5186150;28;20061;-77
2022/03/15 02:19:39;;;;;;;40.30;15.10;;;-0.20;99.90;;;;;;5186055;28;20129;-77
2022/03/15 02:22:10;;;;;;;32.67;14.30;;;-0.20;99.90;;;;;;5186053;28;20097;-77
2022/03/15 02:24:42;;;;;;;29.23;13.00;;;-0.20;99.90;;;;;;5186151;28;20053;-77
2022/03/15 02:27:13;;;;;;;26.27;12.65;;;-0.20;99.90;;;;;;5186238;28;20496;-77
2022/03/15 02:29:43;;;;;;;26.05;13.35;;;-0.30;99.90;;;;;;5187428;28;20076;-77
2022/03/15 02:32:15;;;;;;;21.45;12.15;;;-0.20;99.90;;;;;;5190179;28;20021;-77
2022/03/15 02:34:45;;;;;;;25.45;12.38;;;-0.30;99.90;;;;;;5189932;28;20034;-77
2022/03/15 02:37:16;;;;;;;25.85;12.32;;;-0.20;99.90;;;;;;5190084;28;20044;-77
2022/03/15 02:39:47;;;;;;;24.35;12.63;;;-0.20;99.90;;;;;;5189832;28;20032;-77
2022/03/15 02:42:19;;;;;;;23.00;11.93;;;-0.40;99.90;;;;;;5189973;28;20032;-78
2022/03/15 02:44:50;;;;;;;26.05;11.32;;;-0.40;99.90;;;;;;5189906;28;20030;-77
2022/03/15 02:47:21;;;;;;;36.10;15.27;;;-0.30;99.90;;;;;;5189918;28;20029;-77
2022/03/15 02:49:52;;;;;;;60.50;19.35;;;-0.50;99.90;;;;;;5189725;28;20049;-77
2022/03/15 02:52:25;;;;;;;43.72;17.83;;;-0.30;99.90;;;;;;5189950;28;20117;-77
2022/03/15 02:54:58;;;;;;;42.70;16.35;;;-0.30;99.90;;;;;;5189580;28;20034;-77
2022/03/15 02:57:29;;;;;;;34.58;15.02;;;-0.30;99.90;;;;;;5189633;28;20042;-77
2022/03/15 03:00:00;;;;;;;30.33;14.35;;;-0.30;99.90;;;;;;5171690;28;20054;-77
2022/03/15 03:02:32;;;;;;;60.97;28.85;;;-0.20;99.90;;;;;;5189560;28;20021;-77
2022/03/15 03:05:03;;;;;;;84.93;39.13;;;-0.10;99.90;;;;;;5189570;28;20026;-77
2022/03/15 03:07:37;;;;;;;94.68;44.78;;;-0.10;99.90;;;;;;5189488;28;20444;-77
2022/03/15 03:10:08;;;;;;;110.45;52.72;;;-0.10;99.90;;;;;;5189492;28;20480;-77
2022/03/15 03:12:41;;;;;;;48.67;23.35;;;-0.20;99.90;;;;;;5189450;28;20461;-77
2022/03/15 03:15:12;;;;;;;60.67;27.60;;;-0.30;99.90;;;;;;5189410;28;20030;-78
2022/03/15 03:17:44;;;;;;;52.17;23.55;;;-0.40;99.90;;;;;;5189089;28;20049;-77
2022/03/15 03:20:21;;;;;;;45.72;20.30;;;-0.30;99.90;;;;;;5189044;28;20025;-78
2022/03/15 03:22:54;;;;;;;40.75;19.45;;;-0.20;99.90;;;;;;5189252;28;20076;-77
2022/03/15 03:25:30;;;;;;;51.08;20.50;;;-0.20;99.90;;;;;;5189192;28;20405;-77
2022/03/15 03:28:03;;;;;;;46.13;18.98;;;-0.20;99.90;;;;;;5188839;28;20030;-77
2022/03/15 03:30:37;;;;;;;46.42;19.70;;;-0.20;99.90;;;;;;5188988;28;20037;-77
2022/03/15 03:33:08;;;;;;;43.97;19.65;;;-0.20;99.90;;;;;;5188976;28;20037;-78
2022/03/15 03:35:39;;;;;;;41.75;17.13;;;-0.20;99.90;;;;;;5188894;28;20037;-77
2022/03/15 03:38:11;;;;;;;37.03;17.35;;;-0.20;99.90;;;;;;5188798;28;20044;-78
2022/03/15 03:40:42;;;;;;;37.67;17.40;;;-0.20;99.90;;;;;;5187871;28;20026;-77
2022/03/15 03:43:12;;;;;;;41.72;18.40;;;-0.40;99.90;;;;;;5171252;28;20116;-77
2022/03/15 03:45:44;;;;;;;41.75;18.67;;;-0.50;99.90;;;;;;5188749;28;20021;-78
2022/03/15 03:48:14;;;;;;;43.40;18.65;;;-0.30;99.90;;;;;;5188542;28;20482;-77
2022/03/15 03:50:45;;;;;;;46.65;20.25;;;-0.20;99.90;;;;;;5188720;28;20029;-76
2022/03/15 03:53:17;;;;;;;55.90;21.25;;;-0.10;99.90;;;;;;5188600;28;20497;-77
2022/03/15 03:55:48;;;;;;;55.05;21.80;;;-0.10;99.90;;;;;;5188531;28;20478;-76
2022/03/15 03:58:19;;;;;;;86.72;29.00;;;-0.30;99.90;;;;;;5188196;28;20060;-77
2022/03/15 04:00:49;;;;;;;95.55;31.02;;;-0.20;99.90;;;;;;5188061;28;20052;-77
2022/03/15 04:03:22;;;;;;;78.80;29.05;;;-0.20;99.90;;;;;;5188485;28;20381;-77
2022/03/15 04:05:54;;;;;;;94.32;34.20;;;-0.20;99.90;;;;;;5188427;28;20026;-77
2022/03/15 04:08:25;;;;;;;104.60;36.53;;;-0.20;99.90;;;;;;5188239;28;20025;-76
2022/03/15 04:10:55;;;;;;;127.85;43.88;;;-0.40;99.90;;;;;;5188427;28;20441;-76
2022/03/15 04:13:26;;;;;;;174.05;55.50;;;-0.40;99.90;;;;;;5188364;28;20041;-76
2022/03/15 04:15:57;;;;;;;160.77;54.22;;;-0.30;99.90;;;;;;5188091;28;20030;-77
2022/03/15 04:18:28;;;;;;;139.07;50.28;;;-0.30;99.90;;;;;;5188013;28;20116;-76
2022/03/15 04:20:59;;;;;;;138.98;48.28;;;-0.20;99.90;;;;;;5188037;28;20018;-76
2022/03/15 04:23:30;;;;;;;130.20;42.00;;;-0.30;99.90;;;;;;5188013;28;20021;-76
2022/03/15 04:26:01;;;;;;;93.95;35.80;;;-0.30;99.90;;;;;;5188015;28;20026;-77
2022/03/15 04:28:32;;;;;;;91.03;38.10;;;-0.30;99.90;;;;;;5187706;28;20021;-77
2022/03/15 04:31:03;;;;;;;88.15;34.60;;;-0.40;99.90;;;;;;5187913;28;20394;-76
2022/03/15 04:33:34;;;;;;;82.88;34.28;;;-0.50;99.90;;;;;;5187725;28;20563;-77
2022/03/15 04:36:05;;;;;;;92.45;35.88;;;-0.60;99.90;;;;;;5187753;28;20014;-77
2022/03/15 04:38:36;;;;;;;86.75;36.15;;;-0.50;99.90;;;;;;5187479;28;20077;-77
2022/03/15 04:41:07;;;;;;;84.97;36.67;;;-0.40;99.90;;;;;;5187511;28;20110;-77
2022/03/15 04:43:38;;;;;;;93.80;39.15;;;-0.50;99.90;;;;;;5187668;28;20030;-76
2022/03/15 04:46:09;;;;;;;90.00;39.83;;;-0.50;99.90;;;;;;5187565;28;20026;-76
2022/03/15 04:48:39;;;;;;;96.95;40.88;;;-0.60;99.90;;;;;;5187501;28;20041;-76
2022/03/15 04:51:10;;;;;;;87.45;40.13;;;-0.70;99.90;;;;;;5187362;28;20340;-77
2022/03/15 04:53:41;;;;;;;113.25;44.47;;;-0.50;99.90;;;;;;5169876;28;20028;-77
2022/03/15 04:56:12;;;;;;;109.97;44.80;;;-0.50;99.90;;;;;;5187287;28;20430;-77
2022/03/15 04:58:44;;;;;;;127.30;48.90;;;-0.70;99.90;;;;;;5186889;28;20077;-76
2022/03/15 05:01:14;;;;;;;117.60;46.15;;;-0.70;99.90;;;;;;5187101;28;20026;-77
2022/03/15 05:03:45;;;;;;;165.15;57.17;;;-0.70;99.90;;;;;;5187283;28;20088;-77
2022/03/15 05:06:16;;;;;;;112.93;42.85;;;-0.60;99.90;;;;;;5187241;28;20018;-77
2022/03/15 05:08:48;;;;;;;124.38;46.67;;;-0.60;99.90;;;;;;5187177;28;20033;-77
2022/03/15 05:11:20;;;;;;;128.13;50.10;;;-0.40;99.90;;;;;;5187135;28;20110;-77
2022/03/15 05:13:51;;;;;;;118.05;45.15;;;-0.30;99.90;;;;;;5187118;28;20026;-77
2022/03/15 05:16:22;;;;;;;111.35;42.25;;;-0.50;99.90;;;;;;5186974;28;20022;-77
2022/03/15 05:18:54;;;;;;;48.85;22.98;;;-0.40;99.90;;;;;;5186798;28;20095;-77
2022/03/15 05:21:25;;;;;;;72.90;30.13;;;-0.30;99.90;;;;;;5186866;28;20030;-78
2022/03/15 05:23:56;;;;;;;68.97;28.10;;;-0.20;99.90;;;;;;5186754;28;20037;-76
2022/03/15 05:26:27;;;;;;;51.42;22.08;;;0.10;99.90;;;;;;5186734;28;20474;-77
2022/03/15 05:28:58;;;;;;;101.20;42.65;;;0.10;99.90;;;;;;5186518;28;20563;-76
2022/03/15 05:31:30;;;;;;;107.38;45.10;;;0.30;99.90;;;;;;5186783;28;20025;-77
2022/03/15 05:34:01;;;;;;;75.15;32.05;;;0.40;99.90;;;;;;5186715;28;20037;-76
2022/03/15 05:36:31;;;;;;;49.65;21.52;;;0.40;99.90;;;;;;5186575;28;20022;-77
2022/03/15 05:39:02;;;;;;;55.05;24.75;;;0.30;99.90;;;;;;5186455;28;20030;-77
2022/03/15 05:41:35;;;;;;;50.90;24.95;;;0.30;99.90;;;;;;5186576;28;20029;-76
2022/03/15 05:44:05;;;;;;;39.70;17.63;;;0.50;99.90;;;;;;5186526;28;20038;-77
2022/03/15 05:46:36;;;;;;;38.92;19.58;;;0.60;99.90;;;;;;5186417;28;20024;-76
2022/03/15 05:49:07;;;;;;;44.40;25.40;;;0.70;99.90;;;;;;5186468;28;20026;-76
2022/03/15 05:51:38;;;;;;;39.35;19.50;;;0.60;99.90;;;;;;5186475;28;20369;-76
2022/03/15 05:54:09;;;;;;;42.97;21.80;;;0.60;99.90;;;;;;5186361;28;20034;-76
2022/03/15 05:56:40;;;;;;;44.60;23.48;;;0.80;99.90;;;;;;5186388;28;20021;-76
2022/03/15 05:59:11;;;;;;;42.05;21.20;;;0.90;99.90;;;;;;5185773;28;20057;-76
2022/03/15 06:01:42;;;;;;;24.90;14.35;;;1.00;99.90;;;;;;5186401;28;20037;-77
2022/03/15 06:04:13;;;;;;;24.30;13.95;;;1.00;99.90;;;;;;5185887;28;20069;-77
2022/03/15 06:06:44;;;;;;;20.52;11.65;;;1.20;99.90;;;;;;5186330;28;20538;-77
2022/03/15 06:09:14;;;;;;;17.33;9.50;;;1.30;99.90;;;;;;5186521;28;20492;-76
2022/03/15 06:11:45;;;;;;;16.45;10.50;;;1.40;99.90;;;;;;5186193;28;20026;-76
2022/03/15 06:14:16;;;;;;;18.90;9.90;;;1.70;99.90;;;;;;5186190;28;20485;-77
2022/03/15 06:16:47;;;;;;;20.02;9.82;;;1.80;99.90;;;;;;5186238;28;20462;-77
2022/03/15 06:19:18;;;;;;;18.40;10.45;;;1.90;99.90;;;;;;5185999;28;20033;-79
2022/03/15 06:21:49;;;;;;;17.05;9.55;;;2.10;99.90;;;;;;5186192;28;20026;-77
2022/03/15 06:24:20;;;;;;;17.58;10.05;;;2.30;99.90;;;;;;5186166;28;20024;-78
2022/03/15 06:26:51;;;;;;;17.58;10.60;;;2.40;99.90;;;;;;5186213;28;20033;-77
2022/03/15 06:29:22;;;;;;;15.25;9.88;;;2.40;99.90;;;;;;5185860;28;20038;-77
2022/03/15 06:31:53;;;;;;;15.90;8.98;;;2.40;99.90;;;;;;5186046;28;20029;-78
2022/03/15 06:34:24;;;;;;;15.40;8.70;;;2.40;99.90;;;;;;5186099;28;20094;-78
2022/03/15 06:36:55;;;;;;;18.52;9.65;;;2.70;99.90;;;;;;5168423;28;20129;-78
2022/03/15 06:39:26;;;;;;;18.65;10.13;;;3.00;99.90;;;;;;5185870;28;20036;-79
2022/03/15 06:41:58;;;;;;;16.92;10.07;;;3.00;99.90;;;;;;5185969;28;20524;-77
2022/03/15 06:44:29;;;;;;;17.60;10.93;;;3.10;99.90;;;;;;5186007;28;20021;-78
2022/03/15 06:46:59;;;;;;;22.13;11.93;;;3.30;99.90;;;;;;5185875;28;20026;-77
2022/03/15 06:49:30;;;;;;;20.67;12.50;;;3.20;99.90;;;;;;5185849;28;20097;-78
2022/03/15 06:52:01;;;;;;;21.08;12.50;;;3.40;99.90;;;;;;5185830;28;20037;-77
2022/03/15 06:54:32;;;;;;;19.80;11.57;;;3.70;99.90;;;;;;5185901;28;20049;-78
2022/03/15 06:57:03;;;;;;;18.10;11.73;;;3.40;99.90;;;;;;5185743;28;20038;-78
2022/03/15 06:59:34;;;;;;;18.65;12.05;;;3.60;99.90;;;;;;5185344;28;20053;-78
2022/03/15 07:02:05;;;;;;;19.73;11.93;;;3.70;99.90;;;;;;5184652;28;20121;-77
2022/03/15 07:04:36;;;;;;;16.73;10.30;;;3.90;99.90;;;;;;5185697;28;20386;-79
2022/03/15 07:07:07;;;;;;;19.17;11.70;;;4.00;99.90;;;;;;5185730;28;20036;-76
2022/03/15 07:09:38;;;;;;;21.05;11.70;;;4.10;99.90;;;;;;5185699;28;20018;-76
2022/03/15 07:12:09;;;;;;;26.10;13.70;;;4.40;99.90;;;;;;5185641;28;20085;-80
2022/03/15 07:14:40;;;;;;;27.27;13.50;;;4.60;99.90;;;;;;5185713;28;20046;-76
2022/03/15 07:17:11;;;;;;;26.88;14.15;;;5.00;99.90;;;;;;5170102;28;20069;-76
2022/03/15 07:19:42;;;;;;;26.77;13.15;;;4.90;99.90;;;;;;5189263;28;20022;-75
2022/03/15 07:22:13;;;;;;;27.20;13.40;;;5.00;99.90;;;;;;5189370;28;20018;-77
2022/03/15 07:24:44;;;;;;;17.55;10.35;;;5.40;99.90;;;;;;5189234;28;20030;-76
2022/03/15 07:27:15;;;;;;;12.93;7.50;;;5.70;99.90;;;;;;5189110;28;20440;-77
2022/03/15 07:29:45;;;;;;;12.10;7.00;;;5.70;99.90;;;;;;5188984;28;20359;-79
2022/03/15 07:32:16;;;;;;;14.18;7.28;;;6.20;99.90;;;;;;5188740;28;20037;-78
2022/03/15 07:34:49;;;;;;;12.68;7.45;;;6.50;99.90;;;;;;5189003;28;20033;-80
2022/03/15 07:37:20;;;;;;;12.93;7.40;;;6.40;99.90;;;;;;5171224;28;20501;-78
2022/03/15 07:39:51;;;;;;;14.70;8.70;;;6.80;99.90;;;;;;5188764;28;20026;-78
2022/03/15 07:42:23;;;;;;;13.65;8.63;;;6.90;99.90;;;;;;5188861;28;20075;-78
2022/03/15 07:44:54;;;;;;;10.98;7.47;;;6.70;99.90;;;;;;5171165;28;20033;-79
2022/03/15 07:47:25;;;;;;;11.73;7.82;;;6.60;99.90;;;;;;5171111;28;20034;-79
2022/03/15 07:49:56;;;;;;;11.35;7.32;;;6.90;99.90;;;;;;5188715;28;20056;-79
2022/03/15 07:52:27;;;;;;;11.90;7.68;;;7.10;99.90;;;;;;5188717;28;20018;-81
2022/03/15 07:54:58;;;;;;;10.10;7.38;;;7.20;99.90;;;;;;5188553;28;20477;-81
2022/03/15 07:57:29;;;;;;;10.10;6.50;;;7.20;99.90;;;;;;5188592;28;20037;-81
2022/03/15 08:00:01;;;;;;;10.43;6.85;;;7.40;99.90;;;;;;5188104;28;20379;-79
2022/03/15 08:02:32;;;;;;;14.68;7.93;;;7.20;99.90;;;;;;5188400;28;20116;-79
2022/03/15 08:05:03;;;;;;;16.73;8.50;;;7.30;99.90;;;;;;5188420;28;20065;-81
2022/03/15 08:07:36;;;;;;;14.65;8.45;;;7.30;99.90;;;;;;5188306;28;20080;-80
2022/03/15 08:10:08;;;;;;;12.45;8.32;;;7.70;99.90;;;;;;5188229;28;20030;-79
2022/03/15 08:12:40;;;;;;;12.68;8.00;;;7.90;99.90;;;;;;5188260;28;20030;-79
2022/03/15 08:15:11;;;;;;;13.85;8.10;;;8.10;99.90;;;;;;5188268;28;20026;-81
2022/03/15 08:17:42;;;;;;;12.48;7.63;;;8.40;99.90;;;;;;5188023;28;20355;-79
2022/03/15 08:20:19;;;;;;;13.43;7.85;;;8.30;99.90;;;;;;5188002;28;20022;-79
2022/03/15 08:22:50;;;;;;;12.55;7.90;;;7.70;93.50;;;;;;5171655;28;20097;-79
2022/03/15 08:25:21;;;;;;;13.32;7.75;;;8.00;95.20;;;;;;5188058;28;20496;-80
2022/03/15 08:27:53;;;;;;;13.38;7.75;;;7.50;90.40;;;;;;5187495;28;20021;-79
2022/03/15 08:30:24;;;;;;;13.57;9.18;;;7.60;90.40;;;;;;5187884;28;20029;-79
2022/03/15 08:32:56;;;;;;;12.85;7.80;;;7.90;89.70;;;;;;5187937;28;20022;-81
2022/03/15 08:35:27;;;;;;;10.13;7.38;;;8.70;97.50;;;;;;5187841;28;20081;-79
2022/03/15 08:38:01;;;;;;;10.45;7.00;;;8.50;81.50;;;;;;5187659;28;20037;-82
2022/03/15 08:40:32;;;;;;;11.73;8.75;;;8.70;84.40;;;;;;5187518;28;20033;-81
2022/03/15 08:43:04;;;;;;;12.25;7.90;;;8.20;81.60;;;;;;5187710;28;20038;-79
2022/03/15 08:45:37;;;;;;;11.68;7.78;;;7.90;80.30;;;;;;5187561;28;20025;-79
2022/03/15 08:48:08;;;;;;;10.73;7.68;;;8.10;85.00;;;;;;5187620;28;20036;-79
2022/03/15 08:50:38;;;;;;;14.27;8.00;;;9.20;98.30;;;;;;5187616;28;20100;-80
2022/03/15 08:53:10;;;;;;;12.55;8.43;;;8.90;91.60;;;;;;5170034;28;20377;-79
2022/03/15 08:55:41;;;;;;;12.63;7.95;;;9.30;97.70;;;;;;5187404;28;20029;-78
2022/03/15 08:58:12;;;;;;;13.52;7.95;;;8.80;81.40;;;;;;5187218;28;20485;-79
2022/03/15 09:00:43;;;;;;;13.45;8.18;;;9.00;76.70;;;;;;5169491;28;20048;-79
2022/03/15 09:03:14;;;;;;;13.00;7.85;;;9.00;95.40;;;;;;5187314;28;20084;-78
2022/03/15 09:05:46;;;;;;;12.82;8.38;;;9.40;83.70;;;;;;5187373;28;20021;-78
2022/03/15 09:08:17;;;;;;;13.57;7.85;;;8.70;78.30;;;;;;5187234;28;20103;-78
2022/03/15 09:10:48;;;;;;;12.57;7.75;;;8.70;78.20;;;;;;5169550;28;20474;-78
2022/03/15 09:13:19;;;;;;;12.35;7.60;;;8.90;76.40;;;;;;5187132;28;20080;-79
2022/03/15 09:15:50;;;;;;;12.27;7.57;;;9.70;82.20;;;;;;5187162;28;20076;-80
2022/03/15 09:18:21;;;;;;;13.68;7.70;;;8.70;80.50;;;;;;5186908;28;20046;-78
2022/03/15 09:20:55;;;;;;;12.98;8.18;;;7.90;81.10;;;;;;5186994;28;20026;-78
2022/03/15 09:23:25;;;;;;;14.13;9.05;;;8.30;79.30;;;;;;5186901;28;20029;-79
2022/03/15 09:25:57;;;;;;;13.75;7.43;;;8.10;80.20;;;;;;5186923;28;20469;-79
2022/03/15 09:28:28;;;;;;;13.40;7.55;;;8.50;77.00;;;;;;5186535;28;20092;-80
2022/03/15 09:31:00;;;;;;;10.98;7.35;;;9.90;85.00;;;;;;5169214;28;20481;-79
2022/03/15 09:33:31;;;;;;;10.82;7.97;;;10.00;77.80;;;;;;5186856;28;20056;-80
2022/03/15 09:36:04;;;;;;;10.18;7.90;;;10.20;76.10;;;;;;5169106;28;20066;-80
2022/03/15 09:38:36;;;;;;;10.10;7.60;;;8.90;73.50;;;;;;5185965;28;20041;-79
2022/03/15 09:41:07;;;;;;;12.63;8.43;;;10.10;77.10;;;;;;5186448;28;20080;-79
2022/03/15 09:43:42;;;;;;;13.20;7.78;;;10.60;82.00;;;;;;5186593;28;20377;-80
2022/03/15 09:46:13;;;;;;;11.85;8.70;;;10.60;74.60;;;;;;5186530;28;20056;-79
2022/03/15 09:48:46;;;;;;;13.40;7.82;;;10.10;74.40;;;;;;5186545;28;20049;-79
2022/03/15 09:51:18;;;;;;;12.70;8.45;;;10.50;71.00;;;;;;5186540;28;20014;-79
2022/03/15 09:53:50;;;;;;;11.38;8.52;;;10.00;71.30;;;;;;5168924;28;20392;-78
2022/03/15 09:56:21;;;;;;;13.00;8.35;;;9.10;71.70;;;;;;5186458;28;20385;-78
2022/03/15 09:58:52;;;;;;;12.32;8.65;;;9.40;72.00;;;;;;5185916;28;20042;-78
2022/03/15 10:01:23;;;;;;;14.63;9.23;;;9.10;71.30;;;;;;5186385;28;20017;-78
2022/03/15 10:03:54;;;;;;;13.95;8.98;;;9.80;74.60;;;;;;5186291;28;20106;-78
2022/03/15 10:06:25;;;;;;;14.05;9.40;;;10.50;77.30;;;;;;5186326;28;20092;-79
2022/03/15 10:08:57;;;;;;;14.07;8.80;;;10.70;78.00;;;;;;5168809;28;20057;-78
2022/03/15 10:11:28;;;;;;;13.43;9.35;;;9.80;70.00;;;;;;5186234;28;20026;-79
2022/03/15 10:13:59;;;;;;;13.93;8.65;;;10.10;73.80;;;;;;5186216;28;20022;-78
2022/03/15 10:16:36;;;;;;;14.90;9.38;;;9.50;69.30;;;;;;5186166;28;20026;-80
2022/03/15 10:19:12;;;;;;;15.73;9.63;;;10.10;71.80;;;;;;5185917;28;20042;-78
2022/03/15 10:21:48;;;;;;;13.75;9.38;;;10.30;77.40;;;;;;5186135;28;20024;-78
2022/03/15 10:24:29;;;;;;;15.23;9.80;;;9.80;70.70;;;;;;5186101;28;20065;-78
2022/03/15 10:27:02;;;;;;;17.15;8.98;;;10.20;72.80;;;;;;5186049;28;20037;-78
2022/03/15 10:29:34;;;;;;;13.65;9.73;;;10.10;74.80;;;;;;5185961;28;20123;-77
2022/03/15 10:32:05;;;;;;;15.20;9.90;;;9.80;81.80;;;;;;5185940;28;20088;-77
2022/03/15 10:34:36;;;;;;;15.68;10.00;;;9.40;74.60;;;;;;5186063;28;20112;-76
2022/03/15 10:37:07;;;;;;;16.02;10.38;;;10.00;71.40;;;;;;5168296;28;20389;-78
2022/03/15 10:39:42;;;;;;;13.32;9.32;;;11.20;87.50;;;;;;5185868;28;20034;-77
2022/03/15 10:42:13;;;;;;;15.07;9.95;;;11.40;79.20;;;;;;5185984;28;20101;-77
2022/03/15 10:44:45;;;;;;;15.05;10.93;;;11.80;78.60;;;;;;5185708;28;20120;-77
2022/03/15 10:47:17;;;;;;;16.52;10.32;;;11.10;76.00;;;;;;5185877;28;20022;-77
2022/03/15 10:49:54;;;;;;;15.23;9.98;;;10.30;71.20;;;;;;5186015;28;20507;-77
2022/03/15 10:52:45;;;;;;;15.32;9.63;;;10.60;84.30;;;;;;5189864;28;20026;-79
2022/03/15 10:55:28;;;;;;;13.07;9.13;;;9.80;70.70;;;;;;5189859;28;20108;-76
2022/03/15 10:58:05;;;;;;;15.65;10.20;;;9.00;75.50;;;;;;5189428;28;20042;-77
2022/03/15 11:00:39;;;;;;;14.05;9.43;;;9.10;71.80;;;;;;5189389;28;20485;-76
2022/03/15 11:03:23;;;;;;;13.80;9.00;;;9.40;74.10;;;;;;5189598;28;20034;-77
2022/03/15 11:05:58;;;;;;;15.73;9.65;;;9.70;82.40;;;;;;5189642;28;20022;-77
2022/03/15 11:08:29;;;;;;;13.15;8.27;;;10.00;94.50;;;;;;5189553;28;20033;-77
2022/03/15 11:11:03;;;;;;;13.02;8.35;;;9.70;75.50;;;;;;5189499;28;20028;-76
2022/03/15 11:13:36;;;;;;;13.63;8.88;;;9.60;75.40;;;;;;5189381;28;20037;-76
2022/03/15 11:16:07;;;;;;;13.48;8.70;;;10.10;79.60;;;;;;5189407;28;20494;-77
2022/03/15 11:18:39;;;;;;;12.30;8.02;;;9.80;81.80;;;;;;5189304;28;20096;-76
2022/03/15 11:21:10;;;;;;;13.52;8.70;;;9.70;72.50;;;;;;5189241;28;20029;-78
2022/03/15 11:23:45;;;;;;;12.93;8.48;;;10.20;79.00;;;;;;5189315;28;20054;-77
2022/03/15 11:26:21;;;;;;;13.77;8.23;;;11.20;82.50;;;;;;5189221;28;20029;-76
2022/03/15 11:28:52;;;;;;;12.48;9.13;;;11.10;81.20;;;;;;5171302;28;20429;-77
2022/03/15 11:31:24;;;;;;;15.60;9.48;;;11.00;75.50;;;;;;5189049;28;20065;-77
2022/03/15 11:33:58;;;;;;;15.73;10.05;;;11.10;77.00;;;;;;5189018;28;20029;-77
2022/03/15 11:36:29;;;;;;;16.30;10.15;;;11.60;75.30;;;;;;5171391;28;20057;-79
2022/03/15 11:39:00;;;;;;;14.85;9.27;;;11.80;76.20;;;;;;5188681;28;20397;-78
2022/03/15 11:41:32;;;;;;;12.45;9.00;;;12.10;86.20;;;;;;5171255;28;20026;-77
2022/03/15 11:44:16;;;;;;;15.95;8.88;;;12.40;75.90;;;;;;5188857;28;20029;-78
2022/03/15 11:47:01;;;;;;;15.00;9.38;;;12.80;75.00;;;;;;5188895;28;20108;-76
2022/03/15 11:50:10;;;;;;;12.95;9.15;;;12.80;73.40;;;;;;5188925;28;20025;-77
2022/03/15 11:53:01;;;;;;;14.93;9.43;;;11.00;65.10;;;;;;5184865;28;20623;-76
2022/03/15 11:55:49;;;;;;;13.07;9.18;;;11.60;69.20;;;;;;5171058;28;20034;-77
2022/03/15 11:58:25;;;;;;;11.98;8.85;;;12.60;72.80;;;;;;5188301;28;20042;-79
2022/03/15 12:01:09;;;;;;;14.30;9.27;;;12.70;74.40;;;;;;5170626;28;20052;-78
2022/03/15 12:04:06;;;;;;;14.70;9.35;;;12.60;73.70;;;;;;5187816;28;20493;-77
2022/03/15 12:06:37;;;;;;;22.33;15.85;;;11.80;72.90;;;;;;5183953;28;20030;-78
2022/03/15 12:09:13;;;;;;;15.23;9.05;;;12.20;64.40;;;;;;5188252;28;20030;-77
2022/03/15 12:11:46;;;;;;;16.73;10.80;;;11.80;63.10;;;;;;5188343;28;20026;-79
2022/03/15 12:14:19;;;;;;;13.02;8.93;;;11.40;63.00;;;;;;5188154;28;20034;-78
2022/03/15 12:16:54;;;;;;;13.98;9.23;;;12.50;74.40;;;;;;5188079;28;20108;-77
2022/03/15 12:19:36;;;;;;;13.57;9.07;;;11.90;65.30;;;;;;5188040;28;20087;-79
2022/03/15 12:22:11;;;;;;;13.30;8.70;;;11.20;64.40;;;;;;5188128;28;20018;-77
2022/03/15 12:24:46;;;;;;;13.88;9.25;;;10.90;63.30;;;;;;5188058;28;20367;-77
2022/03/15 12:27:19;;;;;;;12.43;8.63;;;11.00;65.30;;;;;;5187913;28;20026;-77
2022/03/15 12:29:51;;;;;;;18.52;12.52;;;10.60;65.20;;;;;;5170410;28;20362;-79
2022/03/15 12:32:22;;;;;;;12.32;9.20;;;10.40;66.00;;;;;;5188018;28;20044;-79
2022/03/15 12:34:55;;;;;;;12.32;8.73;;;10.40;65.40;;;;;;5187945;28;20378;-77
2022/03/15 12:37:37;;;;;;;15.23;10.60;;;10.70;65.20;;;;;;5187712;28;20025;-77
2022/03/15 12:40:10;;;;;;;39.78;35.35;;;12.10;66.00;;;;;;5187716;28;20026;-79
2022/03/15 12:42:52;;;;;;;12.73;9.00;;;11.80;61.70;;;;;;5187724;28;20010;-77
2022/03/15 12:45:23;;;;;;;16.73;11.25;;;12.30;62.80;;;;;;5187813;28;20037;-77
2022/03/15 12:48:08;;;;;;;13.65;9.15;;;10.90;63.90;;;;;;5187541;28;20370;-77
2022/03/15 12:50:39;;;;;;;13.13;9.05;;;12.30;70.90;;;;;;5187518;28;20041;-77
2022/03/15 12:53:12;;;;;;;14.00;10.63;;;12.60;68.00;;;;;;5187608;28;20022;-76
2022/03/15 12:55:43;;;;;;;13.18;9.60;;;12.80;69.60;;;;;;5187455;28;20397;-77
2022/03/15 12:58:14;;;;;;;13.32;8.57;;;11.70;67.80;;;;;;5187145;28;20052;-80
2022/03/15 13:00:46;;;;;;;13.88;9.27;;;12.20;65.30;;;;;;5165646;28;20108;-78